sensor_id;sensor_type;location;lat;lon;timestamp;temperature;humidity
55213;DHT22;41083;52.932;6.674;2022-07-29T00:00:37;15.60;93.30
55213;DHT22;41083;52.932;6.674;2022-07-29T00:03:03;15.60;93.30
55213;DHT22;41083;52.932;6.674;2022-07-29T00:05:29;15.60;93.30
55213;DHT22;41083;52.932;6.674;2022-07-29T00:07:54;15.50;93.30
55213;DHT22;41083;52.932;6.674;2022-07-29T00:10:20;15.60;93.70
55213;DHT22;41083;52.932;6.674;2022-07-29T00:12:46;15.60;93.50
55213;DHT22;41083;52.932;6.674;2022-07-29T00:15:12;15.60;93.40
55213;DHT22;41083;52.932;6.674;2022-07-29T00:17:38;15.50;93.50
55213;DHT22;41083;52.932;6.674;2022-07-29T00:20:04;15.50;93.50
55213;DHT22;41083;52.932;6.674;2022-07-29T00:22:30;15.50;93.60
55213;DHT22;41083;52.932;6.674;2022-07-29T00:24:55;15.50;93.60
55213;DHT22;41083;52.932;6.674;2022-07-29T00:27:21;15.40;93.60
55213;DHT22;41083;52.932;6.674;2022-07-29T00:29:47;15.50;93.60
55213;DHT22;41083;52.932;6.674;2022-07-29T00:32:13;15.50;93.60
55213;DHT22;41083;52.932;6.674;2022-07-29T00:34:39;15.50;93.70
55213;DHT22;41083;52.932;6.674;2022-07-29T00:37:24;15.40;93.70
55213;DHT22;41083;52.932;6.674;2022-07-29T00:39:49;15.40;93.60
55213;DHT22;41083;52.932;6.674;2022-07-29T00:42:16;15.40;93.70
55213;DHT22;41083;52.932;6.674;2022-07-29T00:44:42;15.40;93.70
55213;DHT22;41083;52.932;6.674;2022-07-29T00:47:12;15.40;94.10
55213;DHT22;41083;52.932;6.674;2022-07-29T00:49:39;15.30;93.90
55213;DHT22;41083;52.932;6.674;2022-07-29T00:52:06;15.30;94.00
55213;DHT22;41083;52.932;6.674;2022-07-29T00:54:33;15.30;93.90
55213;DHT22;41083;52.932;6.674;2022-07-29T00:56:59;15.30;94.00
55213;DHT22;41083;52.932;6.674;2022-07-29T00:59:28;15.30;94.00
55213;DHT22;41083;52.932;6.674;2022-07-29T01:01:54;15.30;94.10
55213;DHT22;41083;52.932;6.674;2022-07-29T01:04:21;15.30;94.10
55213;DHT22;41083;52.932;6.674;2022-07-29T01:06:48;15.30;94.10
55213;DHT22;41083;52.932;6.674;2022-07-29T01:09:14;15.30;94.20
55213;DHT22;41083;52.932;6.674;2022-07-29T01:11:42;15.30;94.20
55213;DHT22;41083;52.932;6.674;2022-07-29T01:14:09;15.30;94.20
55213;DHT22;41083;52.932;6.674;2022-07-29T01:16:59;15.30;94.30
55213;DHT22;41083;52.932;6.674;2022-07-29T01:22:07;15.30;94.30
55213;DHT22;41083;52.932;6.674;2022-07-29T01:25:02;15.30;94.30
55213;DHT22;41083;52.932;6.674;2022-07-29T01:30:32;15.30;94.90
55213;DHT22;41083;52.932;6.674;2022-07-29T01:33:03;15.30;94.20
55213;DHT22;41083;52.932;6.674;2022-07-29T01:35:38;15.30;94.20
55213;DHT22;41083;52.932;6.674;2022-07-29T01:38:08;15.30;94.20
55213;DHT22;41083;52.932;6.674;2022-07-29T01:40:48;15.30;94.10
55213;DHT22;41083;52.932;6.674;2022-07-29T01:43:17;15.30;94.30
55213;DHT22;41083;52.932;6.674;2022-07-29T01:45:51;15.30;94.10
55213;DHT22;41083;52.932;6.674;2022-07-29T01:48:22;15.30;94.40
55213;DHT22;41083;52.932;6.674;2022-07-29T01:50:52;15.30;94.30
55213;DHT22;41083;52.932;6.674;2022-07-29T01:53:34;15.30;94.10
55213;DHT22;41083;52.932;6.674;2022-07-29T01:56:02;15.30;94.30
55213;DHT22;41083;52.932;6.674;2022-07-29T01:58:30;15.30;94.10
55213;DHT22;41083;52.932;6.674;2022-07-29T02:00:58;15.30;94.10
55213;DHT22;41083;52.932;6.674;2022-07-29T02:03:25;15.20;94.10
55213;DHT22;41083;52.932;6.674;2022-07-29T02:05:53;15.20;94.10
55213;DHT22;41083;52.932;6.674;2022-07-29T02:08:19;15.20;94.10
55213;DHT22;41083;52.932;6.674;2022-07-29T02:10:48;15.20;94.10
55213;DHT22;41083;52.932;6.674;2022-07-29T02:13:16;15.20;94.30
55213;DHT22;41083;52.932;6.674;2022-07-29T02:15:43;15.20;94.30
55213;DHT22;41083;52.932;6.674;2022-07-29T02:18:14;15.20;94.20
55213;DHT22;41083;52.932;6.674;2022-07-29T02:20:44;15.20;94.30
55213;DHT22;41083;52.932;6.674;2022-07-29T02:23:12;15.10;94.30
55213;DHT22;41083;52.932;6.674;2022-07-29T02:25:41;15.10;94.40
55213;DHT22;41083;52.932;6.674;2022-07-29T02:28:07;15.10;94.50
55213;DHT22;41083;52.932;6.674;2022-07-29T02:30:35;15.10;94.40
55213;DHT22;41083;52.932;6.674;2022-07-29T02:33:03;15.10;94.60
55213;DHT22;41083;52.932;6.674;2022-07-29T02:35:29;15.10;94.60
55213;DHT22;41083;52.932;6.674;2022-07-29T02:37:55;15.10;94.70
55213;DHT22;41083;52.932;6.674;2022-07-29T02:40:42;15.00;94.70
55213;DHT22;41083;52.932;6.674;2022-07-29T02:43:09;15.00;94.80
55213;DHT22;41083;52.932;6.674;2022-07-29T02:45:35;15.00;94.70
55213;DHT22;41083;52.932;6.674;2022-07-29T02:48:10;15.00;94.70
55213;DHT22;41083;52.932;6.674;2022-07-29T02:50:44;15.00;95.10
55213;DHT22;41083;52.932;6.674;2022-07-29T02:53:23;15.00;95.00
55213;DHT22;41083;52.932;6.674;2022-07-29T02:56:04;15.00;95.20
55213;DHT22;41083;52.932;6.674;2022-07-29T02:58:34;15.00;95.20
55213;DHT22;41083;52.932;6.674;2022-07-29T03:01:11;14.90;95.20
55213;DHT22;41083;52.932;6.674;2022-07-29T03:03:38;15.00;95.10
55213;DHT22;41083;52.932;6.674;2022-07-29T03:06:05;14.90;95.10
55213;DHT22;41083;52.932;6.674;2022-07-29T03:08:34;15.00;95.20
55213;DHT22;41083;52.932;6.674;2022-07-29T03:11:01;15.00;95.50
55213;DHT22;41083;52.932;6.674;2022-07-29T03:13:27;14.90;95.30
55213;DHT22;41083;52.932;6.674;2022-07-29T03:15:55;14.90;95.30
55213;DHT22;41083;52.932;6.674;2022-07-29T03:18:21;14.90;95.40
55213;DHT22;41083;52.932;6.674;2022-07-29T03:20:47;14.90;95.40
55213;DHT22;41083;52.932;6.674;2022-07-29T03:23:21;14.90;95.40
55213;DHT22;41083;52.932;6.674;2022-07-29T03:25:49;14.90;95.60
55213;DHT22;41083;52.932;6.674;2022-07-29T03:28:15;14.90;95.50
55213;DHT22;41083;52.932;6.674;2022-07-29T03:30:41;14.90;95.50
55213;DHT22;41083;52.932;6.674;2022-07-29T03:33:06;14.90;95.60
55213;DHT22;41083;52.932;6.674;2022-07-29T03:35:32;14.90;95.60
55213;DHT22;41083;52.932;6.674;2022-07-29T03:37:58;14.90;95.70
55213;DHT22;41083;52.932;6.674;2022-07-29T03:40:46;14.90;95.70
55213;DHT22;41083;52.932;6.674;2022-07-29T03:43:15;14.90;96.30
55213;DHT22;41083;52.932;6.674;2022-07-29T03:45:45;14.90;95.80
55213;DHT22;41083;52.932;6.674;2022-07-29T03:48:15;14.90;95.80
55213;DHT22;41083;52.932;6.674;2022-07-29T03:50:41;14.90;95.80
55213;DHT22;41083;52.932;6.674;2022-07-29T03:53:08;14.90;95.90
55213;DHT22;41083;52.932;6.674;2022-07-29T03:55:37;14.90;95.90
55213;DHT22;41083;52.932;6.674;2022-07-29T03:58:04;14.80;96.00
55213;DHT22;41083;52.932;6.674;2022-07-29T04:00:32;14.90;95.90
55213;DHT22;41083;52.932;6.674;2022-07-29T04:02:59;14.90;95.90
55213;DHT22;41083;52.932;6.674;2022-07-29T04:05:24;14.90;95.90
55213;DHT22;41083;52.932;6.674;2022-07-29T04:07:50;14.80;96.00
55213;DHT22;41083;52.932;6.674;2022-07-29T04:10:16;14.80;96.00
55213;DHT22;41083;52.932;6.674;2022-07-29T04:12:42;14.80;96.00
55213;DHT22;41083;52.932;6.674;2022-07-29T04:15:09;14.80;96.00
55213;DHT22;41083;52.932;6.674;2022-07-29T04:17:34;14.80;96.10
55213;DHT22;41083;52.932;6.674;2022-07-29T04:20:00;14.80;96.10
55213;DHT22;41083;52.932;6.674;2022-07-29T04:22:26;14.80;96.20
55213;DHT22;41083;52.932;6.674;2022-07-29T04:24:51;14.80;96.20
55213;DHT22;41083;52.932;6.674;2022-07-29T04:27:17;14.80;96.20
55213;DHT22;41083;52.932;6.674;2022-07-29T04:29:42;14.80;96.20
55213;DHT22;41083;52.932;6.674;2022-07-29T04:32:08;14.90;96.30
55213;DHT22;41083;52.932;6.674;2022-07-29T04:34:33;14.80;96.30
55213;DHT22;41083;52.932;6.674;2022-07-29T04:36:59;14.80;96.30
55213;DHT22;41083;52.932;6.674;2022-07-29T04:39:25;14.80;96.30
55213;DHT22;41083;52.932;6.674;2022-07-29T04:41:51;14.80;96.40
55213;DHT22;41083;52.932;6.674;2022-07-29T04:44:16;14.80;96.30
55213;DHT22;41083;52.932;6.674;2022-07-29T04:46:42;14.80;96.40
55213;DHT22;41083;52.932;6.674;2022-07-29T04:49:08;14.80;96.40
55213;DHT22;41083;52.932;6.674;2022-07-29T04:51:34;14.80;96.40
55213;DHT22;41083;52.932;6.674;2022-07-29T04:54:00;14.80;96.40
55213;DHT22;41083;52.932;6.674;2022-07-29T04:56:26;14.90;96.40
55213;DHT22;41083;52.932;6.674;2022-07-29T04:58:51;14.80;96.50
55213;DHT22;41083;52.932;6.674;2022-07-29T05:01:17;14.80;96.50
55213;DHT22;41083;52.932;6.674;2022-07-29T05:03:42;14.80;96.50
55213;DHT22;41083;52.932;6.674;2022-07-29T05:06:08;14.90;96.50
55213;DHT22;41083;52.932;6.674;2022-07-29T05:08:34;14.90;96.50
55213;DHT22;41083;52.932;6.674;2022-07-29T05:10:59;14.90;96.60
55213;DHT22;41083;52.932;6.674;2022-07-29T05:13:25;14.90;96.50
55213;DHT22;41083;52.932;6.674;2022-07-29T05:15:50;14.90;96.50
55213;DHT22;41083;52.932;6.674;2022-07-29T05:18:16;14.90;96.60
55213;DHT22;41083;52.932;6.674;2022-07-29T05:20:42;14.90;96.60
55213;DHT22;41083;52.932;6.674;2022-07-29T05:23:07;15.00;96.60
55213;DHT22;41083;52.932;6.674;2022-07-29T05:25:33;15.00;96.60
55213;DHT22;41083;52.932;6.674;2022-07-29T05:27:58;15.00;96.50
55213;DHT22;41083;52.932;6.674;2022-07-29T05:30:24;15.00;96.50
55213;DHT22;41083;52.932;6.674;2022-07-29T05:32:50;15.10;96.60
55213;DHT22;41083;52.932;6.674;2022-07-29T05:35:15;15.00;96.50
55213;DHT22;41083;52.932;6.674;2022-07-29T05:37:41;15.00;96.50
55213;DHT22;41083;52.932;6.674;2022-07-29T05:40:07;15.10;96.50
55213;DHT22;41083;52.932;6.674;2022-07-29T05:42:34;15.10;96.50
55213;DHT22;41083;52.932;6.674;2022-07-29T05:45:00;15.10;96.50
55213;DHT22;41083;52.932;6.674;2022-07-29T05:47:26;15.00;96.50
55213;DHT22;41083;52.932;6.674;2022-07-29T05:49:52;15.10;96.50
55213;DHT22;41083;52.932;6.674;2022-07-29T05:52:18;15.20;96.50
55213;DHT22;41083;52.932;6.674;2022-07-29T05:54:44;15.20;96.50
55213;DHT22;41083;52.932;6.674;2022-07-29T05:57:20;15.20;96.60
55213;DHT22;41083;52.932;6.674;2022-07-29T05:59:46;15.30;96.60
55213;DHT22;41083;52.932;6.674;2022-07-29T06:02:12;15.30;96.50
55213;DHT22;41083;52.932;6.674;2022-07-29T06:04:38;15.40;96.40
55213;DHT22;41083;52.932;6.674;2022-07-29T06:07:04;15.40;96.30
55213;DHT22;41083;52.932;6.674;2022-07-29T06:09:29;15.40;96.20
55213;DHT22;41083;52.932;6.674;2022-07-29T06:11:55;15.50;96.20
55213;DHT22;41083;52.932;6.674;2022-07-29T06:14:21;15.50;96.20
55213;DHT22;41083;52.932;6.674;2022-07-29T06:16:46;15.50;96.10
55213;DHT22;41083;52.932;6.674;2022-07-29T06:19:12;15.50;96.20
55213;DHT22;41083;52.932;6.674;2022-07-29T06:21:44;15.60;96.10
55213;DHT22;41083;52.932;6.674;2022-07-29T06:24:11;15.60;96.10
55213;DHT22;41083;52.932;6.674;2022-07-29T06:26:38;15.60;96.10
55213;DHT22;41083;52.932;6.674;2022-07-29T06:29:05;15.70;96.00
55213;DHT22;41083;52.932;6.674;2022-07-29T06:31:30;15.70;96.00
55213;DHT22;41083;52.932;6.674;2022-07-29T06:33:56;15.70;96.00
55213;DHT22;41083;52.932;6.674;2022-07-29T06:36:21;15.80;96.00
55213;DHT22;41083;52.932;6.674;2022-07-29T06:38:47;15.70;95.90
55213;DHT22;41083;52.932;6.674;2022-07-29T06:41:13;15.70;95.80
55213;DHT22;41083;52.932;6.674;2022-07-29T06:43:42;15.70;95.80
55213;DHT22;41083;52.932;6.674;2022-07-29T06:46:12;15.70;95.90
55213;DHT22;41083;52.932;6.674;2022-07-29T06:48:38;15.70;95.90
55213;DHT22;41083;52.932;6.674;2022-07-29T06:51:05;15.80;96.00
55213;DHT22;41083;52.932;6.674;2022-07-29T06:53:31;15.90;96.00
55213;DHT22;41083;52.932;6.674;2022-07-29T06:55:58;15.80;95.90
55213;DHT22;41083;52.932;6.674;2022-07-29T06:58:25;15.90;95.90
55213;DHT22;41083;52.932;6.674;2022-07-29T07:00:51;15.90;95.80
55213;DHT22;41083;52.932;6.674;2022-07-29T07:03:17;15.90;95.80
55213;DHT22;41083;52.932;6.674;2022-07-29T07:05:44;15.90;95.90
55213;DHT22;41083;52.932;6.674;2022-07-29T07:08:10;15.90;96.00
55213;DHT22;41083;52.932;6.674;2022-07-29T07:10:36;16.00;96.00
55213;DHT22;41083;52.932;6.674;2022-07-29T07:13:02;16.00;95.90
55213;DHT22;41083;52.932;6.674;2022-07-29T07:15:29;16.00;95.90
55213;DHT22;41083;52.932;6.674;2022-07-29T07:17:55;16.10;95.60
55213;DHT22;41083;52.932;6.674;2022-07-29T07:20:20;16.20;95.60
55213;DHT22;41083;52.932;6.674;2022-07-29T07:22:46;16.20;95.70
55213;DHT22;41083;52.932;6.674;2022-07-29T07:25:13;16.20;95.60
55213;DHT22;41083;52.932;6.674;2022-07-29T07:27:39;16.30;95.70
55213;DHT22;41083;52.932;6.674;2022-07-29T07:30:06;16.30;95.50
55213;DHT22;41083;52.932;6.674;2022-07-29T07:32:35;16.50;95.30
55213;DHT22;41083;52.932;6.674;2022-07-29T07:35:01;16.50;95.10
55213;DHT22;41083;52.932;6.674;2022-07-29T07:37:27;16.50;95.10
55213;DHT22;41083;52.932;6.674;2022-07-29T07:39:53;16.50;95.00
55213;DHT22;41083;52.932;6.674;2022-07-29T07:42:19;16.50;95.00
55213;DHT22;41083;52.932;6.674;2022-07-29T07:44:45;16.60;94.90
55213;DHT22;41083;52.932;6.674;2022-07-29T07:47:14;16.60;94.80
55213;DHT22;41083;52.932;6.674;2022-07-29T07:49:41;16.60;95.10
55213;DHT22;41083;52.932;6.674;2022-07-29T07:52:06;16.70;95.10
55213;DHT22;41083;52.932;6.674;2022-07-29T07:54:32;16.80;94.70
55213;DHT22;41083;52.932;6.674;2022-07-29T07:56:57;16.80;94.60
55213;DHT22;41083;52.932;6.674;2022-07-29T07:59:23;16.90;94.50
55213;DHT22;41083;52.932;6.674;2022-07-29T08:01:50;16.90;94.40
55213;DHT22;41083;52.932;6.674;2022-07-29T08:04:15;17.00;94.30
55213;DHT22;41083;52.932;6.674;2022-07-29T08:06:41;17.00;94.20
55213;DHT22;41083;52.932;6.674;2022-07-29T08:09:07;17.00;94.30
55213;DHT22;41083;52.932;6.674;2022-07-29T08:11:32;17.00;94.30
55213;DHT22;41083;52.932;6.674;2022-07-29T08:13:58;17.20;94.20
55213;DHT22;41083;52.932;6.674;2022-07-29T08:16:24;17.20;94.20
55213;DHT22;41083;52.932;6.674;2022-07-29T08:18:50;17.20;94.00
55213;DHT22;41083;52.932;6.674;2022-07-29T08:21:17;17.20;94.00
55213;DHT22;41083;52.932;6.674;2022-07-29T08:23:45;17.10;93.90
55213;DHT22;41083;52.932;6.674;2022-07-29T08:26:14;17.10;93.90
55213;DHT22;41083;52.932;6.674;2022-07-29T08:28:42;17.00;94.00
55213;DHT22;41083;52.932;6.674;2022-07-29T08:31:11;17.00;94.10
55213;DHT22;41083;52.932;6.674;2022-07-29T08:33:37;17.10;94.20
55213;DHT22;41083;52.932;6.674;2022-07-29T08:36:03;17.10;94.20
55213;DHT22;41083;52.932;6.674;2022-07-29T08:38:28;17.20;94.10
55213;DHT22;41083;52.932;6.674;2022-07-29T08:40:54;17.10;94.00
55213;DHT22;41083;52.932;6.674;2022-07-29T08:43:20;17.20;93.90
55213;DHT22;41083;52.932;6.674;2022-07-29T08:45:48;17.20;94.10
55213;DHT22;41083;52.932;6.674;2022-07-29T08:48:15;17.10;94.00
55213;DHT22;41083;52.932;6.674;2022-07-29T08:50:42;17.10;94.00
55213;DHT22;41083;52.932;6.674;2022-07-29T08:53:13;17.20;93.80
55213;DHT22;41083;52.932;6.674;2022-07-29T08:55:49;17.20;93.80
55213;DHT22;41083;52.932;6.674;2022-07-29T08:58:15;17.30;93.80
55213;DHT22;41083;52.932;6.674;2022-07-29T09:00:44;17.50;93.80
55213;DHT22;41083;52.932;6.674;2022-07-29T09:03:12;17.50;93.70
55213;DHT22;41083;52.932;6.674;2022-07-29T09:05:41;17.60;93.60
55213;DHT22;41083;52.932;6.674;2022-07-29T09:08:08;17.70;93.50
55213;DHT22;41083;52.932;6.674;2022-07-29T09:10:35;17.70;93.40
55213;DHT22;41083;52.932;6.674;2022-07-29T09:13:01;17.80;93.10
55213;DHT22;41083;52.932;6.674;2022-07-29T09:15:26;17.80;93.10
55213;DHT22;41083;52.932;6.674;2022-07-29T09:17:52;17.90;93.10
55213;DHT22;41083;52.932;6.674;2022-07-29T09:20:19;17.90;93.00
55213;DHT22;41083;52.932;6.674;2022-07-29T09:22:46;17.90;93.10
55213;DHT22;41083;52.932;6.674;2022-07-29T09:25:38;17.90;93.10
55213;DHT22;41083;52.932;6.674;2022-07-29T09:28:11;17.80;92.30
55213;DHT22;41083;52.932;6.674;2022-07-29T09:30:54;17.80;92.90
55213;DHT22;41083;52.932;6.674;2022-07-29T09:33:21;17.80;92.80
55213;DHT22;41083;52.932;6.674;2022-07-29T09:36:03;17.80;93.20
55213;DHT22;41083;52.932;6.674;2022-07-29T09:38:29;17.80;93.00
55213;DHT22;41083;52.932;6.674;2022-07-29T09:40:59;17.70;93.20
55213;DHT22;41083;52.932;6.674;2022-07-29T09:43:25;17.80;93.40
55213;DHT22;41083;52.932;6.674;2022-07-29T09:45:50;17.80;93.20
55213;DHT22;41083;52.932;6.674;2022-07-29T09:48:21;17.80;93.20
55213;DHT22;41083;52.932;6.674;2022-07-29T09:50:47;17.80;93.30
55213;DHT22;41083;52.932;6.674;2022-07-29T09:53:37;17.80;93.40
55213;DHT22;41083;52.932;6.674;2022-07-29T09:56:04;17.70;93.20
55213;DHT22;41083;52.932;6.674;2022-07-29T09:58:30;17.80;93.30
55213;DHT22;41083;52.932;6.674;2022-07-29T10:00:58;17.80;93.30
55213;DHT22;41083;52.932;6.674;2022-07-29T10:03:24;17.70;93.20
55213;DHT22;41083;52.932;6.674;2022-07-29T10:06:09;17.80;93.30
55213;DHT22;41083;52.932;6.674;2022-07-29T10:08:35;17.80;93.20
55213;DHT22;41083;52.932;6.674;2022-07-29T10:11:13;17.80;93.30
55213;DHT22;41083;52.932;6.674;2022-07-29T10:13:39;17.90;93.00
55213;DHT22;41083;52.932;6.674;2022-07-29T10:16:06;17.90;93.30
55213;DHT22;41083;52.932;6.674;2022-07-29T10:18:32;17.90;93.30
55213;DHT22;41083;52.932;6.674;2022-07-29T10:20:58;18.00;93.30
55213;DHT22;41083;52.932;6.674;2022-07-29T10:23:29;18.00;93.20
55213;DHT22;41083;52.932;6.674;2022-07-29T10:25:56;18.00;93.20
55213;DHT22;41083;52.932;6.674;2022-07-29T10:28:21;18.00;93.30
55213;DHT22;41083;52.932;6.674;2022-07-29T10:30:50;18.00;93.20
55213;DHT22;41083;52.932;6.674;2022-07-29T10:44:26;18.10;92.90
55213;DHT22;41083;52.932;6.674;2022-07-29T10:46:52;18.20;93.00
55213;DHT22;41083;52.932;6.674;2022-07-29T10:49:21;18.30;93.10
55213;DHT22;41083;52.932;6.674;2022-07-29T10:54:37;18.40;93.10
55213;DHT22;41083;52.932;6.674;2022-07-29T10:57:28;18.40;92.80
55213;DHT22;41083;52.932;6.674;2022-07-29T11:05:14;18.60;93.10
55213;DHT22;41083;52.932;6.674;2022-07-29T11:10:38;18.60;93.00
55213;DHT22;41083;52.932;6.674;2022-07-29T11:13:03;18.70;93.10
55213;DHT22;41083;52.932;6.674;2022-07-29T11:15:55;18.70;93.20
55213;DHT22;41083;52.932;6.674;2022-07-29T11:18:21;18.70;93.20
55213;DHT22;41083;52.932;6.674;2022-07-29T11:20:51;18.80;93.10
55213;DHT22;41083;52.932;6.674;2022-07-29T11:23:32;18.80;93.10
55213;DHT22;41083;52.932;6.674;2022-07-29T11:26:20;18.80;92.90
55213;DHT22;41083;52.932;6.674;2022-07-29T11:31:35;18.90;93.20
55213;DHT22;41083;52.932;6.674;2022-07-29T11:34:20;18.90;93.20
55213;DHT22;41083;52.932;6.674;2022-07-29T11:39:46;19.10;92.80
55213;DHT22;41083;52.932;6.674;2022-07-29T11:45:02;19.20;93.10
55213;DHT22;41083;52.932;6.674;2022-07-29T11:47:32;19.40;93.00
55213;DHT22;41083;52.932;6.674;2022-07-29T11:49:59;19.40;92.80
55213;DHT22;41083;52.932;6.674;2022-07-29T11:52:41;19.50;92.60
55213;DHT22;41083;52.932;6.674;2022-07-29T11:55:17;19.50;92.40
55213;DHT22;41083;52.932;6.674;2022-07-29T12:02:52;19.70;92.50
55213;DHT22;41083;52.932;6.674;2022-07-29T12:05:18;19.70;92.50
55213;DHT22;41083;52.932;6.674;2022-07-29T12:07:44;19.80;92.50
55213;DHT22;41083;52.932;6.674;2022-07-29T12:10:10;19.80;92.30
55213;DHT22;41083;52.932;6.674;2022-07-29T12:12:36;19.90;92.30
55213;DHT22;41083;52.932;6.674;2022-07-29T12:17:38;19.90;92.00
55213;DHT22;41083;52.932;6.674;2022-07-29T12:20:05;20.00;92.20
55213;DHT22;41083;52.932;6.674;2022-07-29T12:22:37;20.10;92.10
55213;DHT22;41083;52.932;6.674;2022-07-29T12:25:08;20.10;92.00
55213;DHT22;41083;52.932;6.674;2022-07-29T12:27:35;20.20;91.90
55213;DHT22;41083;52.932;6.674;2022-07-29T12:30:03;20.20;91.70
55213;DHT22;41083;52.932;6.674;2022-07-29T12:32:34;20.20;91.50
55213;DHT22;41083;52.932;6.674;2022-07-29T12:35:21;20.20;91.40
55213;DHT22;41083;52.932;6.674;2022-07-29T12:37:47;20.30;91.50
55213;DHT22;41083;52.932;6.674;2022-07-29T12:40:15;20.30;91.40
55213;DHT22;41083;52.932;6.674;2022-07-29T12:45:35;20.50;91.00
55213;DHT22;41083;52.932;6.674;2022-07-29T12:48:01;20.50;91.30
55213;DHT22;41083;52.932;6.674;2022-07-29T12:50:26;20.60;91.30
55213;DHT22;41083;52.932;6.674;2022-07-29T12:52:52;20.70;91.10
55213;DHT22;41083;52.932;6.674;2022-07-29T12:55:40;20.70;91.00
55213;DHT22;41083;52.932;6.674;2022-07-29T12:58:06;20.70;90.40
55213;DHT22;41083;52.932;6.674;2022-07-29T13:00:32;20.80;90.90
55213;DHT22;41083;52.932;6.674;2022-07-29T13:02:59;20.90;90.80
55213;DHT22;41083;52.932;6.674;2022-07-29T13:05:45;21.00;90.50
55213;DHT22;41083;52.932;6.674;2022-07-29T13:08:15;21.00;86.20
55213;DHT22;41083;52.932;6.674;2022-07-29T13:10:41;21.10;88.80
55213;DHT22;41083;52.932;6.674;2022-07-29T13:13:12;21.20;88.90
55213;DHT22;41083;52.932;6.674;2022-07-29T13:15:41;21.30;88.80
55213;DHT22;41083;52.932;6.674;2022-07-29T13:18:27;21.40;88.90
55213;DHT22;41083;52.932;6.674;2022-07-29T13:20:54;21.50;87.10
55213;DHT22;41083;52.932;6.674;2022-07-29T13:23:19;21.60;87.70
55213;DHT22;41083;52.932;6.674;2022-07-29T13:25:45;21.60;87.00
55213;DHT22;41083;52.932;6.674;2022-07-29T13:28:11;21.70;87.40
55213;DHT22;41083;52.932;6.674;2022-07-29T13:30:37;21.80;86.80
55213;DHT22;41083;52.932;6.674;2022-07-29T13:33:03;21.80;86.50
55213;DHT22;41083;52.932;6.674;2022-07-29T13:35:28;21.90;85.90
55213;DHT22;41083;52.932;6.674;2022-07-29T13:37:55;21.90;86.30
55213;DHT22;41083;52.932;6.674;2022-07-29T13:40:20;22.00;86.00
55213;DHT22;41083;52.932;6.674;2022-07-29T13:42:46;22.00;85.30
55213;DHT22;41083;52.932;6.674;2022-07-29T13:45:12;22.00;84.70
55213;DHT22;41083;52.932;6.674;2022-07-29T13:47:38;22.10;83.90
55213;DHT22;41083;52.932;6.674;2022-07-29T13:50:05;22.10;84.10
55213;DHT22;41083;52.932;6.674;2022-07-29T13:52:31;22.10;83.80
55213;DHT22;41083;52.932;6.674;2022-07-29T13:54:56;22.10;83.40
55213;DHT22;41083;52.932;6.674;2022-07-29T13:57:22;22.10;83.30
55213;DHT22;41083;52.932;6.674;2022-07-29T13:59:47;22.10;82.90
55213;DHT22;41083;52.932;6.674;2022-07-29T14:02:13;22.10;83.10
55213;DHT22;41083;52.932;6.674;2022-07-29T14:04:39;22.10;83.70
55213;DHT22;41083;52.932;6.674;2022-07-29T14:07:05;22.10;83.90
55213;DHT22;41083;52.932;6.674;2022-07-29T14:09:31;22.10;84.10
55213;DHT22;41083;52.932;6.674;2022-07-29T14:11:56;22.10;83.90
55213;DHT22;41083;52.932;6.674;2022-07-29T14:14:22;22.10;83.60
55213;DHT22;41083;52.932;6.674;2022-07-29T14:16:48;22.10;83.80
55213;DHT22;41083;52.932;6.674;2022-07-29T14:19:13;22.00;83.60
55213;DHT22;41083;52.932;6.674;2022-07-29T14:21:40;22.10;83.40
55213;DHT22;41083;52.932;6.674;2022-07-29T14:24:06;22.10;82.60
55213;DHT22;41083;52.932;6.674;2022-07-29T14:26:31;22.10;82.90
55213;DHT22;41083;52.932;6.674;2022-07-29T14:28:57;22.10;82.60
55213;DHT22;41083;52.932;6.674;2022-07-29T14:31:23;22.20;82.60
55213;DHT22;41083;52.932;6.674;2022-07-29T14:33:48;22.20;83.10
55213;DHT22;41083;52.932;6.674;2022-07-29T14:36:14;22.30;83.20
55213;DHT22;41083;52.932;6.674;2022-07-29T14:38:40;22.40;83.30
55213;DHT22;41083;52.932;6.674;2022-07-29T14:41:07;22.40;82.30
55213;DHT22;41083;52.932;6.674;2022-07-29T14:43:33;22.40;81.30
55213;DHT22;41083;52.932;6.674;2022-07-29T14:46:00;22.50;80.80
55213;DHT22;41083;52.932;6.674;2022-07-29T14:48:26;22.50;80.40
55213;DHT22;41083;52.932;6.674;2022-07-29T14:50:51;22.50;80.00
55213;DHT22;41083;52.932;6.674;2022-07-29T14:53:17;22.50;80.10
55213;DHT22;41083;52.932;6.674;2022-07-29T14:55:43;22.50;79.40
55213;DHT22;41083;52.932;6.674;2022-07-29T14:58:09;22.50;79.30
55213;DHT22;41083;52.932;6.674;2022-07-29T15:00:35;22.50;79.40
55213;DHT22;41083;52.932;6.674;2022-07-29T15:03:02;22.40;78.10
55213;DHT22;41083;52.932;6.674;2022-07-29T15:05:29;22.40;77.90
55213;DHT22;41083;52.932;6.674;2022-07-29T15:07:55;22.40;77.60
55213;DHT22;41083;52.932;6.674;2022-07-29T15:10:21;22.40;76.80
55213;DHT22;41083;52.932;6.674;2022-07-29T15:12:46;22.40;76.00
55213;DHT22;41083;52.932;6.674;2022-07-29T15:15:12;22.40;75.80
55213;DHT22;41083;52.932;6.674;2022-07-29T15:17:38;22.40;75.80
55213;DHT22;41083;52.932;6.674;2022-07-29T15:20:04;22.40;75.60
55213;DHT22;41083;52.932;6.674;2022-07-29T15:22:29;22.40;75.80
55213;DHT22;41083;52.932;6.674;2022-07-29T15:24:55;22.40;75.50
55213;DHT22;41083;52.932;6.674;2022-07-29T15:27:20;22.40;75.40
55213;DHT22;41083;52.932;6.674;2022-07-29T15:29:46;22.40;76.00
55213;DHT22;41083;52.932;6.674;2022-07-29T15:32:12;22.40;75.70
55213;DHT22;41083;52.932;6.674;2022-07-29T15:34:38;22.40;75.60
55213;DHT22;41083;52.932;6.674;2022-07-29T15:37:04;22.40;75.40
55213;DHT22;41083;52.932;6.674;2022-07-29T15:39:30;22.50;75.70
55213;DHT22;41083;52.932;6.674;2022-07-29T15:41:56;22.40;74.90
55213;DHT22;41083;52.932;6.674;2022-07-29T15:44:22;22.50;75.00
55213;DHT22;41083;52.932;6.674;2022-07-29T15:46:48;22.40;75.40
55213;DHT22;41083;52.932;6.674;2022-07-29T15:49:39;22.50;75.20
55213;DHT22;41083;52.932;6.674;2022-07-29T15:52:07;22.50;74.10
55213;DHT22;41083;52.932;6.674;2022-07-29T15:54:37;22.40;74.30
55213;DHT22;41083;52.932;6.674;2022-07-29T15:57:03;22.50;74.40
55213;DHT22;41083;52.932;6.674;2022-07-29T15:59:29;22.50;74.50
55213;DHT22;41083;52.932;6.674;2022-07-29T16:01:55;22.50;74.50
55213;DHT22;41083;52.932;6.674;2022-07-29T16:04:21;22.50;74.70
55213;DHT22;41083;52.932;6.674;2022-07-29T16:06:47;22.50;74.70
55213;DHT22;41083;52.932;6.674;2022-07-29T16:09:14;22.50;74.40
55213;DHT22;41083;52.932;6.674;2022-07-29T16:11:40;22.50;74.10
55213;DHT22;41083;52.932;6.674;2022-07-29T16:14:06;22.50;73.80
55213;DHT22;41083;52.932;6.674;2022-07-29T16:16:32;22.50;73.10
55213;DHT22;41083;52.932;6.674;2022-07-29T16:18:58;22.50;73.00
55213;DHT22;41083;52.932;6.674;2022-07-29T16:21:23;22.50;72.80